Time;durP1;ratioP1;P1;durP2;ratioP2;P2;SDS_P1;SDS_P2;PMS_P1;PMS_P2;Temp;Humidity;BMP_temperature;BMP_pressure;BME280_temperature;BME280_humidity;BME280_pressure;Samples;Min_cycle;Max_cycle;Signal;HPM_P1;HPM_P2
2022/12/26 00:00:21;;;;;;;;;;;;;;;16.03;60.17;100964.28;2050488;28;19930;-63
2022/12/26 00:01:25;;;;;;;;;;;;;;;16.04;60.18;100965.06;2057036;28;20408;-64
2022/12/26 00:02:28;;;;;;;;;;;;;;;16.04;60.29;100957.69;2069246;28;19929;-63
2022/12/26 00:03:31;;;;;;;;;;;;;;;16.04;60.31;100965.06;2063336;28;19945;-63
2022/12/26 00:04:33;;;;;;;;;;;;;;;16.03;60.17;100963.50;2062891;28;20385;-63
2022/12/26 00:05:53;;;;;;;;;;;;;;;16.04;60.20;100963.13;2062808;28;19929;-63
2022/12/26 00:06:56;;;;;;;;;;;;;;;16.03;60.15;100961.53;2063313;28;19929;-64
2022/12/26 00:07:58;;;;;;;;;;;;;;;16.04;60.13;100956.91;2062906;28;19929;-64
2022/12/26 00:09:01;;;;;;;;;;;;;;;16.03;59.97;100958.81;2062039;28;20026;-64
2022/12/26 00:10:03;;;;;;;;;;;;;;;16.03;60.03;100953.38;2053843;28;20520;-63
2022/12/26 00:11:06;;;;;;;;;;;;;;;16.03;60.14;100964.28;2049172;28;19992;-63
2022/12/26 00:12:07;;;;;;;;;;;;;;;16.03;60.20;100964.28;2066695;28;20395;-64
2022/12/26 00:13:10;;;;;;;;;;;;;;;16.04;60.08;100956.91;2065344;28;19934;-63
2022/12/26 00:14:32;;;;;;;;;;;;;;;16.03;60.00;100966.22;2062871;28;20016;-64
2022/12/26 00:15:34;;;;;;;;;;;;;;;16.03;60.23;100964.28;2066888;28;19941;-62
2022/12/26 00:16:37;;;;;;;;;;;;;;;16.03;60.06;100964.28;2067144;28;19929;-62
2022/12/26 00:17:40;;;;;;;;;;;;;;;16.03;60.27;100964.28;2064829;28;20400;-62
2022/12/26 00:18:42;;;;;;;;;;;;;;;16.03;60.28;100961.53;2063508;28;20392;-62
2022/12/26 00:19:45;;;;;;;;;;;;;;;16.03;60.17;100961.53;2067144;28;19925;-63
2022/12/26 00:20:46;;;;;;;;;;;;;;;16.03;60.03;100966.22;2065391;28;19930;-62
2022/12/26 00:21:49;;;;;;;;;;;;;;;16.03;60.00;100953.38;2066294;28;19968;-63
2022/12/26 00:22:51;;;;;;;;;;;;;;;16.03;60.13;100964.28;2065241;28;19929;-64
2022/12/26 00:23:53;;;;;;;;;;;;;;;16.03;60.15;100955.34;2066274;28;19929;-63
2022/12/26 00:24:55;;;;;;;;;;;;;;;16.03;60.11;100947.94;2066102;28;19929;-63
2022/12/26 00:26:01;;;;;;;;;;;;;;;16.03;59.96;100947.94;2067414;28;19933;-63
2022/12/26 00:27:03;;;;;;;;;;;;;;;16.02;59.97;100951.81;2066644;28;19933;-63
2022/12/26 00:28:05;;;;;;;;;;;;;;;16.02;60.29;100951.81;2057323;28;20470;-63
2022/12/26 00:29:07;;;;;;;;;;;;;;;16.03;59.89;100949.88;2064754;28;19934;-63
2022/12/26 00:30:10;;;;;;;;;;;;;;;16.02;60.27;100951.81;2071593;28;20298;-64
2022/12/26 00:31:13;;;;;;;;;;;;;;;16.03;60.17;100960.78;2064121;28;20411;-64
2022/12/26 00:32:16;;;;;;;;;;;;;;;16.02;60.20;100951.81;2067577;28;20024;-63
2022/12/26 00:33:19;;;;;;;;;;;;;;;16.03;60.05;100955.34;2066952;28;20248;-63
2022/12/26 00:34:22;;;;;;;;;;;;;;;16.03;60.26;100960.78;2065905;28;19929;-64
2022/12/26 00:35:24;;;;;;;;;;;;;;;16.03;60.04;100952.63;2065665;28;20286;-63
2022/12/26 00:36:28;;;;;;;;;;;;;;;16.02;60.05;100951.81;2065093;28;19996;-64
2022/12/26 00:37:30;;;;;;;;;;;;;;;16.03;60.09;100952.63;2065598;28;19933;-64
2022/12/26 00:38:33;;;;;;;;;;;;;;;16.02;60.31;100951.81;2066644;28;20386;-64
2022/12/26 00:39:35;;;;;;;;;;;;;;;16.03;60.07;100961.53;2068056;28;20403;-62
2022/12/26 00:40:41;;;;;;;;;;;;;;;16.03;60.17;100963.50;2067728;28;19941;-63
2022/12/26 00:41:43;;;;;;;;;;;;;;;16.02;60.27;100951.81;2064498;28;20081;-63
2022/12/26 00:42:46;;;;;;;;;;;;;;;16.02;60.02;100951.03;2063155;28;20214;-64
2022/12/26 00:43:48;;;;;;;;;;;;;;;16.02;60.12;100942.84;2062564;28;19941;-64
2022/12/26 00:44:50;;;;;;;;;;;;;;;16.01;60.07;100947.53;2062511;28;19945;-64
2022/12/26 00:45:52;;;;;;;;;;;;;;;16.02;60.25;100949.09;2053590;28;19937;-64
2022/12/26 00:46:55;;;;;;;;;;;;;;;16.01;60.23;100950.25;2055257;28;19937;-63
2022/12/26 00:47:56;;;;;;;;;;;;;;;16.02;60.08;100949.09;2063300;28;19926;-64
2022/12/26 00:49:00;;;;;;;;;;;;;;;16.02;60.25;100954.53;2066302;28;19926;-64
2022/12/26 00:50:02;;;;;;;;;;;;;;;16.02;60.05;100951.81;2063735;28;19936;-64
2022/12/26 00:51:15;;;;;;;;;;;;;;;16.02;60.10;100960.00;2063195;28;19980;-64
2022/12/26 00:52:17;;;;;;;;;;;;;;;16.02;60.12;100962.72;2067765;28;19930;-63
2022/12/26 00:53:20;;;;;;;;;;;;;;;16.03;60.17;100960.78;2071458;28;19936;-64
2022/12/26 00:54:22;;;;;;;;;;;;;;;16.02;60.33;100957.28;2070461;28;19936;-64
2022/12/26 00:55:24;;;;;;;;;;;;;;;16.02;60.31;100954.53;2070322;28;19933;-63
2022/12/26 00:56:26;;;;;;;;;;;;;;;16.02;60.12;100960.00;2070242;28;20411;-63
2022/12/26 00:57:28;;;;;;;;;;;;;;;16.01;60.20;100947.53;2072902;28;19932;-63
2022/12/26 00:58:30;;;;;;;;;;;;;;;16.02;60.15;100945.59;2069427;28;20341;-63
2022/12/26 00:59:33;;;;;;;;;;;;;;;16.03;59.99;100947.94;2071353;28;19929;-62
2022/12/26 01:00:34;;;;;;;;;;;;;;;16.02;60.20;100951.03;2070975;28;20316;-63
2022/12/26 01:01:37;;;;;;;;;;;;;;;16.03;60.09;100952.63;2070840;28;19929;-63
2022/12/26 01:02:39;;;;;;;;;;;;;;;16.02;60.07;100953.75;2072077;28;20422;-63
2022/12/26 01:03:42;;;;;;;;;;;;;;;16.02;60.09;100949.09;2057169;28;20243;-63
2022/12/26 01:04:45;;;;;;;;;;;;;;;16.02;60.01;100948.31;2057655;28;19942;-63
2022/12/26 01:05:48;;;;;;;;;;;;;;;16.01;60.01;100947.53;2071375;28;19938;-63
2022/12/26 01:06:50;;;;;;;;;;;;;;;16.02;60.11;100942.84;2068616;28;19941;-64
2022/12/26 01:07:53;;;;;;;;;;;;;;;16.01;60.18;100942.09;2071779;28;20395;-64
2022/12/26 01:09:15;;;;;;;;;;;;;;;16.02;60.06;100951.81;2077146;28;20023;-64
2022/12/26 01:10:17;;;;;;;;;;;;;;;16.01;60.02;100953.00;2077339;28;19929;-64
2022/12/26 01:11:38;;;;;;;;;;;;;;;16.01;60.32;100947.53;2067498;28;19941;-64
2022/12/26 01:12:40;;;;;;;;;;;;;;;16.01;60.26;100950.25;2059601;28;20493;-64
2022/12/26 01:13:43;;;;;;;;;;;;;;;16.02;60.06;100954.53;2062588;28;20435;-64
2022/12/26 01:14:45;;;;;;;;;;;;;;;16.02;60.10;100959.19;2071475;28;19929;-64
2022/12/26 01:15:49;;;;;;;;;;;;;;;16.02;60.22;100962.72;2069754;28;19936;-64
2022/12/26 01:16:50;;;;;;;;;;;;;;;16.01;60.08;100961.16;2070785;28;20434;-64
2022/12/26 01:17:53;;;;;;;;;;;;;;;16.02;60.18;100970.09;2068333;28;20010;-64
2022/12/26 01:18:55;;;;;;;;;;;;;;;16.02;60.15;100962.72;2069694;28;20317;-64
2022/12/26 01:19:59;;;;;;;;;;;;;;;16.01;60.01;100965.81;2070845;28;19952;-64
2022/12/26 01:21:01;;;;;;;;;;;;;;;16.01;60.17;100966.59;2071236;28;20398;-63
2022/12/26 01:22:04;;;;;;;;;;;;;;;16.02;60.18;100973.59;2062662;28;19933;-64
2022/12/26 01:23:05;;;;;;;;;;;;;;;16.01;60.30;100972.06;2061948;28;19929;-63
2022/12/26 01:24:08;;;;;;;;;;;;;;;16.01;60.31;100966.59;2071246;28;19929;-63
2022/12/26 01:25:10;;;;;;;;;;;;;;;16.01;60.28;100968.53;2071880;28;20492;-63
2022/12/26 01:26:13;;;;;;;;;;;;;;;16.00;60.24;100970.47;2069782;28;19937;-63
2022/12/26 01:27:16;;;;;;;;;;;;;;;16.01;60.20;100971.25;2069671;28;19930;-64
2022/12/26 01:28:19;;;;;;;;;;;;;;;16.02;60.12;100972.81;2069546;28;20396;-63
2022/12/26 01:29:20;;;;;;;;;;;;;;;16.01;60.25;100972.06;2070560;28;19940;-63
2022/12/26 01:30:23;;;;;;;;;;;;;;;16.00;60.19;100973.19;2068804;28;19930;-64
2022/12/26 01:31:24;;;;;;;;;;;;;;;16.00;60.42;100970.47;2070476;28;20431;-63
2022/12/26 01:32:27;;;;;;;;;;;;;;;16.00;60.09;100981.34;2071249;28;20012;-63
2022/12/26 01:33:29;;;;;;;;;;;;;;;16.01;59.99;100982.16;2069486;28;20400;-63
2022/12/26 01:34:32;;;;;;;;;;;;;;;16.02;60.23;100978.25;2070379;28;19982;-64
2022/12/26 01:35:35;;;;;;;;;;;;;;;16.01;60.12;100976.72;2069674;28;19929;-63
2022/12/26 01:36:37;;;;;;;;;;;;;;;16.01;60.29;100982.94;2071778;28;19937;-64
2022/12/26 01:37:39;;;;;;;;;;;;;;;16.02;60.13;100983.72;2071179;28;20266;-64
2022/12/26 01:38:42;;;;;;;;;;;;;;;16.01;60.23;100980.22;2071169;28;19949;-65
2022/12/26 01:39:43;;;;;;;;;;;;;;;16.01;60.19;100971.25;2063195;28;19935;-64
2022/12/26 01:40:46;;;;;;;;;;;;;;;16.00;60.04;100975.91;2061599;28;20396;-64
2022/12/26 01:41:48;;;;;;;;;;;;;;;16.01;60.28;100977.50;2070272;28;19925;-64
2022/12/26 01:42:50;;;;;;;;;;;;;;;16.01;60.08;100980.22;2069481;28;20387;-63
2022/12/26 01:43:54;;;;;;;;;;;;;;;16.01;60.32;100974.78;2071112;28;19952;-64
2022/12/26 01:45:00;;;;;;;;;;;;;;;16.01;60.11;100976.72;2070661;28;20268;-64
2022/12/26 01:46:02;;;;;;;;;;;;;;;16.01;60.06;100974.78;2070425;28;19929;-64
2022/12/26 01:47:07;;;;;;;;;;;;;;;16.01;60.05;100982.94;2070582;28;19937;-64
2022/12/26 01:48:13;;;;;;;;;;;;;;;16.01;59.91;100974.78;2070378;28;19930;-64
2022/12/26 01:49:18;;;;;;;;;;;;;;;16.00;60.12;100986.81;2068489;28;19930;-63
2022/12/26 01:50:26;;;;;;;;;;;;;;;16.00;60.19;100981.34;2069533;28;19925;-63
2022/12/26 01:51:33;;;;;;;;;;;;;;;16.01;60.29;100973.97;2070100;28;19930;-63
2022/12/26 01:52:36;;;;;;;;;;;;;;;16.00;60.23;100975.91;2057754;28;20521;-63
2022/12/26 01:53:41;;;;;;;;;;;;;;;16.01;60.21;100982.16;2060561;28;20351;-63
2022/12/26 01:54:44;;;;;;;;;;;;;;;16.01;60.29;100974.78;2071217;28;20392;-63
2022/12/26 01:55:50;;;;;;;;;;;;;;;16.01;60.02;100972.06;2070539;28;20438;-62
2022/12/26 01:56:51;;;;;;;;;;;;;;;15.99;60.03;100974.34;2069455;28;19933;-63
2022/12/26 01:57:56;;;;;;;;;;;;;;;16.00;60.04;100973.19;2069807;28;19933;-63
2022/12/26 01:59:02;;;;;;;;;;;;;;;16.00;60.18;100984.09;2068312;28;19936;-63
2022/12/26 02:00:06;;;;;;;;;;;;;;;16.00;60.32;100969.66;2071094;28;19940;-63
2022/12/26 02:01:13;;;;;;;;;;;;;;;16.00;60.31;100970.47;2069661;28;20398;-63
2022/12/26 02:02:16;;;;;;;;;;;;;;;16.00;60.20;100965.03;2070412;28;20592;-63
2022/12/26 02:06:00;;;;;;;;;;;;;;;16.00;60.17;100964.22;2078455;28;19925;-63
2022/12/26 02:07:04;;;;;;;;;;;;;;;15.99;59.98;100968.91;2077442;28;19933;-64
2022/12/26 02:08:08;;;;;;;;;;;;;;;16.00;60.27;100962.28;2068829;28;19929;-63
2022/12/26 02:09:11;;;;;;;;;;;;;;;16.00;60.30;100970.47;2062163;28;20404;-63
2022/12/26 02:10:16;;;;;;;;;;;;;;;15.99;60.01;100968.91;2069603;28;19940;-64
2022/12/26 02:11:21;;;;;;;;;;;;;;;16.00;60.00;100965.03;2070615;28;19929;-63
2022/12/26 02:12:25;;;;;;;;;;;;;;;15.99;60.23;100968.91;2069516;28;19945;-62
2022/12/26 02:13:38;;;;;;;;;;;;;;;15.99;60.07;100963.47;2069113;28;19930;-62
2022/12/26 02:14:40;;;;;;;;;;;;;;;16.00;60.21;100965.03;2069420;28;20472;-63
2022/12/26 02:15:43;;;;;;;;;;;;;;;15.99;60.03;100968.91;2069596;28;20315;-63
2022/12/26 02:16:45;;;;;;;;;;;;;;;15.99;60.13;100968.91;2071412;28;19925;-62
2022/12/26 02:17:48;;;;;;;;;;;;;;;15.99;60.19;100968.91;2074828;28;19929;-63
2022/12/26 02:18:50;;;;;;;;;;;;;;;16.00;60.19;100961.50;2072709;28;20351;-63
2022/12/26 02:19:58;;;;;;;;;;;;;;;16.00;60.23;100964.22;2069574;28;19934;-63
2022/12/26 02:21:09;;;;;;;;;;;;;;;15.99;60.19;100960.75;2066973;28;20356;-63
2022/12/26 02:22:25;;;;;;;;;;;;;;;16.00;60.02;100962.28;2071019;28;20289;-62
2022/12/26 02:23:50;;;;;;;;;;;;;;;16.00;60.19;100969.66;2070595;28;20392;-63
2022/12/26 02:25:06;;;;;;;;;;;;;;;15.99;59.98;100968.91;2069118;28;20442;-64
2022/12/26 02:26:32;;;;;;;;;;;;;;;15.99;59.96;100963.47;2068289;28;20380;-63
2022/12/26 02:27:55;;;;;;;;;;;;;;;15.99;60.08;100962.66;2069204;28;20277;-64
2022/12/26 02:29:08;;;;;;;;;;;;;;;15.99;60.21;100968.91;2081280;28;20375;-63
2022/12/26 02:30:24;;;;;;;;;;;;;;;16.00;60.28;100966.94;2076967;28;20486;-63
2022/12/26 02:31:31;;;;;;;;;;;;;;;15.99;60.01;100959.94;2068973;28;19930;-63
2022/12/26 02:32:51;;;;;;;;;;;;;;;15.99;60.04;100963.47;2070339;28;19929;-63
2022/12/26 02:34:00;;;;;;;;;;;;;;;15.99;60.09;100960.75;2032069;29;19935;-63
2022/12/26 02:35:05;;;;;;;;;;;;;;;16.00;60.21;100961.50;2069350;28;19941;-63
2022/12/26 02:36:21;;;;;;;;;;;;;;;15.99;60.02;100958.03;2069784;28;19933;-63
2022/12/26 02:37:30;;;;;;;;;;;;;;;15.99;60.28;100955.28;2068872;28;20356;-63
2022/12/26 02:38:37;;;;;;;;;;;;;;;15.99;60.25;100958.03;2068555;28;20145;-63
2022/12/26 02:39:48;;;;;;;;;;;;;;;15.99;60.29;100949.84;2068677;28;19956;-63
2022/12/26 02:40:53;;;;;;;;;;;;;;;16.00;60.14;100948.69;2061555;28;19926;-63
2022/12/26 02:42:02;;;;;;;;;;;;;;;16.00;60.09;100958.78;2057441;28;19933;-63
2022/12/26 02:43:10;;;;;;;;;;;;;;;15.99;59.87;100958.03;2070708;28;19934;-63
2022/12/26 02:47:06;;;;;;;;;;;;;;;15.99;60.11;100941.69;2071497;28;19938;-63
2022/12/26 02:48:13;;;;;;;;;;;;;;;15.99;60.20;100944.41;2070239;28;20392;-63
2022/12/26 02:49:20;;;;;;;;;;;;;;;15.98;60.01;100942.81;2071432;28;19960;-64
2022/12/26 03:14:13;;;;;;;;;;;;;;;15.97;60.26;100914.03;2069197;28;19936;-63
2022/12/26 03:15:17;;;;;;;;;;;;;;;15.98;59.99;100910.13;2070363;28;20407;-63
2022/12/26 03:17:45;;;;;;;;;;;;;;;15.97;59.97;100900.41;2071418;28;20438;-63
2022/12/26 03:18:49;;;;;;;;;;;;;;;15.98;60.24;100906.66;2071802;28;19929;-63
2022/12/26 03:20:02;;;;;;;;;;;;;;;15.98;60.19;100910.13;2072478;28;19992;-63
2022/12/26 03:21:05;;;;;;;;;;;;;;;15.97;60.04;100908.59;2072235;28;19941;-63
2022/12/26 03:22:29;;;;;;;;;;;;;;;15.98;60.05;100912.84;2070155;28;19968;-63
2022/12/26 03:23:32;;;;;;;;;;;;;;;15.98;60.06;100917.53;2070709;28;19929;-63
2022/12/26 03:26:38;;;;;;;;;;;;;;;15.98;60.26;100912.09;2071415;28;19934;-63
2022/12/26 03:27:24;;;;;;;;;;;;;;;15.98;59.93;100921.03;2063229;28;19952;-63
2022/12/26 03:28:27;;;;;;;;;;;;;;;15.98;60.31;100917.53;2071919;28;19929;-63
2022/12/26 03:30:49;;;;;;;;;;;;;;;15.98;60.26;100915.59;2070701;28;20380;-63
2022/12/26 03:31:50;;;;;;;;;;;;;;;15.98;60.21;100912.84;2071367;28;19960;-63
2022/12/26 03:32:56;;;;;;;;;;;;;;;15.98;60.19;100907.41;2070292;28;19937;-63
2022/12/26 03:34:16;;;;;;;;;;;;;;;15.98;60.23;100915.59;2060830;28;19941;-63
2022/12/26 03:35:18;;;;;;;;;;;;;;;15.98;60.01;100912.09;2055707;28;20336;-63
2022/12/26 03:36:24;;;;;;;;;;;;;;;15.98;59.88;100907.41;2063873;28;19938;-63
2022/12/26 03:37:33;;;;;;;;;;;;;;;15.98;60.00;100898.47;2072202;28;19929;-64
2022/12/26 03:38:54;;;;;;;;;;;;;;;15.97;60.02;100902.34;2071522;28;19975;-63
2022/12/26 04:19:37;;;;;;;;;;;;;;;15.96;59.95;100892.63;2059389;28;19940;-65
2022/12/26 04:20:42;;;;;;;;;;;;;;;15.97;60.05;100894.19;2058920;28;20281;-66
2022/12/26 04:44:02;;;;;;;;;;;;;;;15.96;60.26;100889.91;2049138;28;19935;-66
2022/12/26 04:45:07;;;;;;;;;;;;;;;15.95;60.03;100894.56;2045357;29;20342;-65
2022/12/26 04:46:08;;;;;;;;;;;;;;;15.96;60.29;100892.63;2046114;29;19930;-65
2022/12/26 04:47:11;;;;;;;;;;;;;;;15.96;60.25;100898.84;2044911;29;19969;-65
2022/12/26 04:51:02;;;;;;;;;;;;;;;15.96;60.12;100898.84;2070932;28;19979;-65
2022/12/26 04:52:06;;;;;;;;;;;;;;;15.96;60.24;100895.34;2063057;28;19960;-65
2022/12/26 04:53:07;;;;;;;;;;;;;;;15.96;59.93;100889.91;2061112;28;20457;-64
2022/12/26 04:54:10;;;;;;;;;;;;;;;15.96;60.04;100887.16;2071161;28;19976;-65
2022/12/26 04:55:12;;;;;;;;;;;;;;;15.96;60.04;100890.69;2070200;28;19976;-65
2022/12/26 04:56:15;;;;;;;;;;;;;;;15.96;59.97;100895.34;2071182;28;20419;-66
2022/12/26 04:57:17;;;;;;;;;;;;;;;15.96;60.03;100885.25;2070404;28;20276;-66
2022/12/26 04:58:23;;;;;;;;;;;;;;;15.95;59.99;100886.38;2070064;28;20659;-66
2022/12/26 04:59:25;;;;;;;;;;;;;;;15.95;59.98;100891.81;2070786;28;20278;-66
2022/12/26 05:00:28;;;;;;;;;;;;;;;15.96;60.04;100893.41;2071642;28;20284;-66
2022/12/26 05:09:45;;;;;;;;;;;;;;;15.95;60.05;100883.66;2072187;28;19933;-65
2022/12/26 05:10:46;;;;;;;;;;;;;;;15.95;60.20;100880.94;2071332;28;19929;-66
2022/12/26 05:11:49;;;;;;;;;;;;;;;15.95;60.25;100880.94;2071323;28;19929;-66
2022/12/26 05:12:51;;;;;;;;;;;;;;;15.96;60.17;100876.28;2069169;28;19933;-66
2022/12/26 05:13:54;;;;;;;;;;;;;;;15.95;60.29;100874.72;2071443;28;19937;-65
2022/12/26 05:14:56;;;;;;;;;;;;;;;15.95;60.05;100883.66;2070682;28;19933;-66
2022/12/26 05:29:28;;;;;;;;;;;;;;;15.95;59.99;100891.81;2071512;28;19929;-65
2022/12/26 05:30:30;;;;;;;;;;;;;;;15.95;60.00;100891.81;2071107;28;19972;-66
2022/12/26 05:31:33;;;;;;;;;;;;;;;15.95;60.00;100893.78;2068818;28;20008;-66
2022/12/26 05:34:06;;;;;;;;;;;;;;;15.95;60.25;100896.50;2064131;28;19926;-66
2022/12/26 05:35:08;;;;;;;;;;;;;;;15.94;60.13;100893.00;2067465;28;19971;-66
2022/12/26 05:36:11;;;;;;;;;;;;;;;15.95;60.05;100897.28;2054995;28;20413;-66
2022/12/26 05:37:14;;;;;;;;;;;;;;;15.94;60.02;100890.28;2062141;28;19937;-65
2022/12/26 05:38:17;;;;;;;;;;;;;;;15.95;60.26;100896.50;2066984;28;19933;-66
2022/12/26 05:39:20;;;;;;;;;;;;;;;15.94;60.05;100901.16;2069265;28;19930;-65
2022/12/26 05:40:22;;;;;;;;;;;;;;;15.94;60.16;100895.72;2070730;28;20382;-65
2022/12/26 05:41:24;;;;;;;;;;;;;;;15.94;60.18;100893.00;2071398;28;20364;-66
2022/12/26 05:42:26;;;;;;;;;;;;;;;15.94;60.01;100887.56;2071124;28;20385;-65
2022/12/26 05:43:29;;;;;;;;;;;;;;;15.95;60.01;100893.78;2070382;28;20292;-65
2022/12/26 05:44:31;;;;;;;;;;;;;;;15.94;60.15;100890.28;2070669;28;19929;-65
2022/12/26 05:45:33;;;;;;;;;;;;;;;15.94;60.02;100895.72;2070379;28;19929;-64
2022/12/26 05:46:36;;;;;;;;;;;;;;;15.94;60.06;100900.38;2060986;28;19933;-66
2022/12/26 05:47:38;;;;;;;;;;;;;;;15.94;60.19;100890.28;2058569;28;20024;-65
2022/12/26 05:48:43;;;;;;;;;;;;;;;15.94;60.13;100890.28;2067757;28;19953;-65
2022/12/26 05:49:45;;;;;;;;;;;;;;;15.94;60.23;100890.28;2062069;28;19930;-65
2022/12/26 05:50:48;;;;;;;;;;;;;;;15.95;60.25;100897.28;2063089;28;20467;-64
2022/12/26 05:51:49;;;;;;;;;;;;;;;15.95;60.15;100893.78;2061325;28;19929;-66
2022/12/26 05:52:52;;;;;;;;;;;;;;;15.96;60.26;100889.91;2061079;28;19930;-65
2022/12/26 05:53:56;;;;;;;;;;;;;;;15.94;60.15;100882.09;2070527;28;20456;-65
2022/12/26 05:54:57;;;;;;;;;;;;;;;15.94;60.01;100884.03;2072996;28;19933;-65
2022/12/26 05:56:02;;;;;;;;;;;;;;;15.94;60.07;100882.09;2074548;28;19933;-65
2022/12/26 05:57:04;;;;;;;;;;;;;;;15.94;60.05;100887.56;2070905;28;20436;-65
2022/12/26 05:58:07;;;;;;;;;;;;;;;15.94;60.22;100884.03;2071312;28;20460;-65
2022/12/26 05:59:08;;;;;;;;;;;;;;;15.93;60.06;100894.16;2070965;28;19971;-66
2022/12/26 06:00:12;;;;;;;;;;;;;;;15.95;59.99;100893.78;2071244;28;19976;-66
2022/12/26 06:01:15;;;;;;;;;;;;;;;15.94;60.17;100890.28;2070616;28;19933;-65
2022/12/26 06:02:17;;;;;;;;;;;;;;;15.93;59.77;100886.00;2068817;28;19933;-66
2022/12/26 06:03:19;;;;;;;;;;;;;;;15.94;60.00;100884.03;2069144;28;19929;-66
2022/12/26 06:04:22;;;;;;;;;;;;;;;15.94;59.89;100884.03;2069135;28;20380;-66
2022/12/26 06:05:23;;;;;;;;;;;;;;;15.94;60.18;100882.09;2070867;28;20056;-65
2022/12/26 06:06:26;;;;;;;;;;;;;;;15.94;59.98;100882.09;2071285;28;20416;-65
2022/12/26 06:07:28;;;;;;;;;;;;;;;15.94;60.01;100878.59;2069818;28;20016;-66
2022/12/26 06:08:30;;;;;;;;;;;;;;;15.94;60.01;100889.47;2069796;28;19985;-66
2022/12/26 06:09:33;;;;;;;;;;;;;;;15.94;59.98;100890.28;2069678;28;19930;-66
2022/12/26 06:10:36;;;;;;;;;;;;;;;15.93;60.06;100883.28;2070975;28;19972;-66
2022/12/26 06:11:38;;;;;;;;;;;;;;;15.93;59.90;100883.28;2069105;28;19926;-65
2022/12/26 06:12:46;;;;;;;;;;;;;;;15.94;60.00;100882.09;2068382;28;19930;-65
2022/12/26 06:13:50;;;;;;;;;;;;;;;15.93;59.87;100875.09;2068750;28;19933;-66
2022/12/26 06:14:52;;;;;;;;;;;;;;;15.94;60.04;100875.88;2070125;28;19925;-67
2022/12/26 06:15:54;;;;;;;;;;;;;;;15.93;60.02;100880.53;2071050;28;19956;-66
2022/12/26 06:16:56;;;;;;;;;;;;;;;15.94;60.19;100873.94;2070244;28;19936;-66
2022/12/26 06:17:59;;;;;;;;;;;;;;;15.94;59.97;100873.13;2069725;28;20411;-66
2022/12/26 06:19:00;;;;;;;;;;;;;;;15.93;60.09;100877.03;2068814;28;20434;-66
2022/12/26 06:20:03;;;;;;;;;;;;;;;15.93;60.00;100868.88;2070927;28;20296;-66
2022/12/26 06:21:06;;;;;;;;;;;;;;;15.93;60.20;100866.94;2070009;28;20409;-65
2022/12/26 06:22:09;;;;;;;;;;;;;;;15.94;60.51;100867.69;2070817;28;19937;-66
2022/12/26 06:23:11;;;;;;;;;;;;;;;15.93;59.93;100866.94;2069985;28;19972;-65
2022/12/26 06:24:14;;;;;;;;;;;;;;;15.93;59.76;100861.50;2068090;28;19936;-65
2022/12/26 06:25:17;;;;;;;;;;;;;;;15.93;60.23;100856.03;2071297;28;20019;-66
2022/12/26 06:26:20;;;;;;;;;;;;;;;15.94;60.13;100859.53;2070102;28;19980;-65
2022/12/26 06:27:22;;;;;;;;;;;;;;;15.93;60.10;100863.41;2068613;28;19925;-65
2022/12/26 06:28:24;;;;;;;;;;;;;;;15.92;60.06;100859.91;2071000;28;19933;-64
2022/12/26 06:29:26;;;;;;;;;;;;;;;15.93;60.23;100861.50;2070788;28;19940;-66
2022/12/26 06:30:28;;;;;;;;;;;;;;;15.94;59.79;100859.53;2064480;28;19934;-65
2022/12/26 06:31:30;;;;;;;;;;;;;;;15.93;59.92;100866.94;2061413;28;19934;-65
2022/12/26 06:32:33;;;;;;;;;;;;;;;15.93;60.22;100866.16;2070445;28;19971;-66
2022/12/26 06:33:35;;;;;;;;;;;;;;;15.94;60.07;100873.13;2069297;28;19977;-65
2022/12/26 06:34:37;;;;;;;;;;;;;;;15.93;60.16;100866.16;2070591;28;19952;-65
2022/12/26 06:35:39;;;;;;;;;;;;;;;15.93;60.01;100858.75;2071918;28;20000;-65
2022/12/26 06:36:42;;;;;;;;;;;;;;;15.93;60.17;100864.22;2068945;28;19956;-65
2022/12/26 06:37:43;;;;;;;;;;;;;;;15.93;60.20;100861.50;2078224;28;19925;-65
2022/12/26 06:38:46;;;;;;;;;;;;;;;15.94;59.64;100856.81;2078261;28;19933;-64
2022/12/26 06:39:48;;;;;;;;;;;;;;;15.92;60.13;100859.91;2071025;28;19952;-64
2022/12/26 06:40:52;;;;;;;;;;;;;;;15.91;60.15;100852.91;2070239;28;19959;-65
2022/12/26 06:41:53;;;;;;;;;;;;;;;15.91;59.99;100869.25;2069125;28;19930;-65
2022/12/26 06:42:56;;;;;;;;;;;;;;;15.93;59.95;100866.94;2070652;28;19933;-65
2022/12/26 06:43:58;;;;;;;;;;;;;;;15.93;60.16;100863.41;2070636;28;19930;-65
2022/12/26 06:45:01;;;;;;;;;;;;;;;15.92;60.17;100859.91;2080672;28;19935;-65
2022/12/26 06:46:04;;;;;;;;;;;;;;;15.93;60.12;100860.69;2077072;28;20366;-65
2022/12/26 06:47:06;;;;;;;;;;;;;;;15.92;59.96;100859.91;2069661;28;20016;-65
2022/12/26 06:48:08;;;;;;;;;;;;;;;15.93;59.96;100849.81;2069031;28;20396;-66
2022/12/26 06:49:11;;;;;;;;;;;;;;;15.93;60.16;100866.16;2070672;28;19936;-65
2022/12/26 06:50:12;;;;;;;;;;;;;;;15.92;59.96;100859.91;2071391;28;19975;-65
2022/12/26 06:51:16;;;;;;;;;;;;;;;15.93;59.92;100871.59;2070425;28;20426;-64
2022/12/26 06:52:18;;;;;;;;;;;;;;;15.93;60.20;100872.38;2070055;28;20016;-65
2022/12/26 06:53:21;;;;;;;;;;;;;;;15.91;60.18;100858.34;2070349;28;19930;-65
2022/12/26 06:54:22;;;;;;;;;;;;;;;15.92;60.05;100859.13;2070072;28;20447;-65
2022/12/26 06:55:25;;;;;;;;;;;;;;;15.93;60.26;100860.69;2071076;28;19929;-65
2022/12/26 06:56:28;;;;;;;;;;;;;;;15.92;59.99;100864.59;2070713;28;19951;-65
2022/12/26 06:57:31;;;;;;;;;;;;;;;15.92;59.97;100859.13;2069475;28;20403;-65
2022/12/26 06:58:33;;;;;;;;;;;;;;;15.92;60.15;100859.13;2070601;28;19925;-65
2022/12/26 06:59:35;;;;;;;;;;;;;;;15.92;60.18;100864.59;2070660;28;20374;-64
2022/12/26 07:00:37;;;;;;;;;;;;;;;15.92;60.11;100865.34;2070637;28;19930;-66
2022/12/26 07:01:39;;;;;;;;;;;;;;;15.92;60.13;100859.91;2070402;28;19929;-66
2022/12/26 07:02:41;;;;;;;;;;;;;;;15.91;60.19;100858.34;2069322;28;19930;-65
2022/12/26 07:03:44;;;;;;;;;;;;;;;15.91;60.01;100863.78;2070631;28;19974;-66
2022/12/26 07:04:51;;;;;;;;;;;;;;;15.91;60.00;100861.06;2068832;28;19929;-65
2022/12/26 07:05:54;;;;;;;;;;;;;;;15.92;60.25;100854.47;2070729;28;20324;-65
2022/12/26 07:06:56;;;;;;;;;;;;;;;15.91;60.01;100858.34;2070833;28;19930;-65
2022/12/26 07:07:58;;;;;;;;;;;;;;;15.91;59.95;100852.91;2070905;28;19926;-65
2022/12/26 07:09:01;;;;;;;;;;;;;;;15.91;60.20;100852.91;2070167;28;20470;-65
2022/12/26 07:10:04;;;;;;;;;;;;;;;15.92;60.20;100857.19;2075876;28;19926;-66
2022/12/26 07:11:11;;;;;;;;;;;;;;;15.91;59.95;100850.19;2074166;28;20013;-65
2022/12/26 07:12:19;;;;;;;;;;;;;;;15.92;60.07;100848.25;2070656;28;19929;-66
2022/12/26 07:13:21;;;;;;;;;;;;;;;15.92;59.92;100842.81;2069309;28;19930;-65
2022/12/26 07:14:23;;;;;;;;;;;;;;;15.91;60.05;100847.47;2070612;28;20348;-66
2022/12/26 07:15:25;;;;;;;;;;;;;;;15.91;59.84;100833.84;2060805;28;19929;-65
2022/12/26 07:16:28;;;;;;;;;;;;;;;15.91;59.97;100839.28;2055442;28;19934;-65
2022/12/26 07:17:29;;;;;;;;;;;;;;;15.91;60.21;100839.28;2069444;28;19933;-66
2022/12/26 07:18:32;;;;;;;;;;;;;;;15.91;59.97;100828.41;2071169;28;19934;-66
2022/12/26 07:19:33;;;;;;;;;;;;;;;15.92;59.97;100821.78;2070308;28;20086;-66
2022/12/26 07:20:37;;;;;;;;;;;;;;;15.91;60.10;100822.94;2070602;28;19936;-66
2022/12/26 07:21:39;;;;;;;;;;;;;;;15.92;60.15;100827.22;2068977;28;19936;-67
2022/12/26 07:22:42;;;;;;;;;;;;;;;15.91;60.13;100820.22;2069021;28;19925;-65
2022/12/26 07:23:44;;;;;;;;;;;;;;;15.90;60.13;100829.53;2070873;28;20395;-65
2022/12/26 07:24:47;;;;;;;;;;;;;;;15.92;60.24;100821.78;2070890;28;19968;-65
2022/12/26 07:25:48;;;;;;;;;;;;;;;15.91;59.93;100822.94;2071233;28;19933;-66
2022/12/26 07:26:51;;;;;;;;;;;;;;;15.92;60.13;100813.63;2069239;28;20602;-66
2022/12/26 07:27:54;;;;;;;;;;;;;;;15.92;59.97;100821.03;2070631;28;19929;-66
2022/12/26 07:28:57;;;;;;;;;;;;;;;15.92;60.11;100827.22;2069734;28;20169;-66
2022/12/26 07:29:59;;;;;;;;;;;;;;;15.92;59.99;100812.84;2069487;28;19934;-66